Time;durP1;ratioP1;P1;durP2;ratioP2;P2;SDS_P1;SDS_P2;PMS_P1;PMS_P2;Temp;Humidity;BMP_temperature;BMP_pressure;BME280_temperature;BME280_humidity;BME280_pressure;Samples;Min_cycle;Max_cycle;Signal;HPM_P1;HPM_P2
2022/04/01 00:01:52;;;;;;;1.02;0.77;;;;;;;1.15;63.84;100932.06;4992148;28;20209;-47
2022/04/01 00:04:17;;;;;;;1.95;0.75;;;;;;;1.10;64.48;100923.28;4991455;28;20174;-46
2022/04/01 00:06:43;;;;;;;0.90;0.70;;;;;;;1.18;64.11;100929.44;4990655;28;20212;-46
2022/04/01 00:09:08;;;;;;;0.82;0.70;;;;;;;1.14;64.19;100927.69;4991433;28;20281;-46
2022/04/01 00:11:34;;;;;;;3.15;0.90;;;;;;;1.14;64.29;100942.66;4991640;28;20629;-45
2022/04/01 00:14:00;;;;;;;2.40;1.23;;;;;;;1.17;64.39;100932.94;4990548;28;20168;-45
2022/04/01 00:16:25;;;;;;;2.60;0.57;;;;;;;1.19;64.27;100940.88;4990438;28;20259;-41
2022/04/01 00:18:50;;;;;;;1.00;0.68;;;;;;;1.17;64.64;100940.88;4991833;28;20177;-42
2022/04/01 00:21:16;;;;;;;2.63;1.10;;;;;;;1.16;64.83;100936.50;4992208;28;20271;-43
2022/04/01 00:23:42;;;;;;;0.93;0.88;;;;;;;1.19;64.49;100935.59;4992068;28;20208;-42
2022/04/01 00:26:07;;;;;;;2.50;0.90;;;;;;;1.17;64.43;100938.22;4991984;28;20196;-42
2022/04/01 00:28:32;;;;;;;0.85;0.68;;;;;;;1.22;64.78;100936.50;4991547;28;20173;-44
2022/04/01 00:30:58;;;;;;;1.42;0.82;;;;;;;1.25;64.32;100954.09;4992287;28;20175;-39
2022/04/01 00:33:24;;;;;;;1.83;0.77;;;;;;;1.21;64.50;100957.59;4990394;28;20523;-41
2022/04/01 00:35:50;;;;;;;2.38;0.90;;;;;;;1.16;65.00;100946.13;4990473;28;20208;-40
2022/04/01 00:38:16;;;;;;;2.20;0.90;;;;;;;1.15;65.02;100950.53;4990424;28;20220;-42
2022/04/01 00:40:41;;;;;;;1.65;0.65;;;;;;;1.22;64.42;100935.59;4990217;28;20191;-43
2022/04/01 00:43:07;;;;;;;1.67;0.80;;;;;;;1.17;64.79;100945.28;4992037;28;20201;-44
2022/04/01 00:45:33;;;;;;;3.65;0.82;;;;;;;1.10;65.11;100949.66;4991857;28;20192;-42
2022/04/01 00:48:01;;;;;;;4.03;1.00;;;;;;;1.16;65.12;100954.97;4990876;28;20166;-41
2022/04/01 00:50:29;;;;;;;1.10;0.60;;;;;;;1.12;65.24;100953.19;4991750;28;20208;-42
2022/04/01 00:52:54;;;;;;;2.65;0.75;;;;;;;1.21;64.57;100944.41;4974232;28;20234;-42
2022/04/01 00:55:20;;;;;;;1.33;0.60;;;;;;;1.15;64.72;100942.63;4991554;28;20221;-42
2022/04/01 00:57:47;;;;;;;1.88;0.60;;;;;;;1.20;64.59;100945.28;4991179;28;20173;-41
2022/04/01 01:00:14;;;;;;;2.17;1.00;;;;;;;1.15;65.17;100952.31;4989169;28;20177;-42
2022/04/01 01:02:39;;;;;;;1.45;0.75;;;;;;;1.20;64.29;100943.53;4990212;28;20227;-41
2022/04/01 01:05:05;;;;;;;1.27;0.80;;;;;;;1.24;65.02;100929.44;4973647;28;20216;-42
2022/04/01 01:07:31;;;;;;;4.07;0.77;;;;;;;1.15;65.31;100939.97;4989510;28;20185;-43
2022/04/01 01:09:58;;;;;;;1.05;0.70;;;;;;;1.17;64.84;100937.34;4991375;28;20173;-43
2022/04/01 01:12:25;;;;;;;1.00;0.80;;;;;;;1.15;65.39;100934.72;4991365;28;20248;-40
2022/04/01 01:14:50;;;;;;;1.63;1.20;;;;;;;1.18;64.93;100934.72;4989910;28;20219;-42
2022/04/01 01:17:16;;;;;;;2.00;0.68;;;;;;;1.19;64.99;100938.25;4989370;28;20611;-42
2022/04/01 01:19:45;;;;;;;3.38;0.88;;;;;;;1.20;64.64;100932.97;4990895;28;20177;-43
2022/04/01 01:22:13;;;;;;;2.50;0.93;;;;;;;1.18;64.57;100952.31;4991027;28;20712;-44
2022/04/01 01:24:41;;;;;;;0.70;0.70;;;;;;;1.17;63.99;100930.31;4990751;28;20538;-42
2022/04/01 01:27:08;;;;;;;1.23;0.77;;;;;;;1.21;64.42;100932.09;4990043;28;20169;-43
2022/04/01 01:29:40;;;;;;;1.25;0.70;;;;;;;1.24;64.39;100923.28;4990487;28;20265;-43
2022/04/01 01:32:11;;;;;;;0.60;0.60;;;;;;;1.13;64.21;100933.81;4989918;28;20235;-42
2022/04/01 01:34:39;;;;;;;1.95;0.70;;;;;;;1.12;64.43;100924.16;4989580;28;20193;-41
2022/04/01 01:37:06;;;;;;;2.67;0.80;;;;;;;1.08;64.32;100927.66;4989600;28;20177;-43
2022/04/01 01:39:31;;;;;;;2.38;0.68;;;;;;;1.13;64.40;100925.03;4989531;28;20181;-42
2022/04/01 01:41:57;;;;;;;1.85;0.77;;;;;;;1.11;64.66;100919.75;4989367;28;20290;-40
2022/04/01 01:44:24;;;;;;;1.77;0.90;;;;;;;1.13;64.52;100914.47;4989209;28;20236;-41
2022/04/01 01:46:50;;;;;;;1.67;0.80;;;;;;;1.16;64.20;100922.38;4990908;28;20205;-44
2022/04/01 01:49:16;;;;;;;2.58;0.95;;;;;;;1.13;65.14;100912.72;4977457;28;20532;-44
2022/04/01 01:54:43;;;;;;;1.08;0.63;;;;;;;1.11;64.93;100919.75;4990161;28;20197;-43
2022/04/01 01:57:10;;;;;;;2.17;0.80;;;;;;;1.13;64.94;100911.84;4993613;28;20181;-43
2022/04/01 01:59:37;;;;;;;3.22;1.10;;;;;;;1.08;65.29;100917.13;4993335;28;20212;-45
2022/04/01 02:02:05;;;;;;;1.42;0.70;;;;;;;1.07;64.94;100910.06;4977042;28;20209;-42
2022/04/01 02:04:35;;;;;;;2.97;1.02;;;;;;;1.08;65.06;100917.13;4993987;28;20185;-41
2022/04/01 02:07:02;;;;;;;4.25;0.82;;;;;;;1.07;64.99;100915.34;4993143;28;20264;-42
2022/04/01 02:09:27;;;;;;;3.85;0.90;;;;;;;1.13;63.84;100910.06;4993950;28;20181;-42
2022/04/01 02:11:53;;;;;;;2.60;0.70;;;;;;;1.16;63.54;100917.09;4994445;28;20694;-43
2022/04/01 02:14:19;;;;;;;1.90;0.85;;;;;;;1.15;63.44;100899.53;4993346;28;20181;-45
2022/04/01 02:16:45;;;;;;;2.10;0.55;;;;;;;1.12;64.26;100920.66;4992637;28;20852;-43
2022/04/01 02:19:11;;;;;;;0.90;0.50;;;;;;;1.12;63.81;100908.31;4994245;28;20265;-41
2022/04/01 02:21:37;;;;;;;2.20;0.70;;;;;;;1.11;64.82;100914.47;4973608;28;20210;-42
2022/04/01 02:24:06;;;;;;;0.63;0.60;;;;;;;1.13;64.15;100917.13;4974791;28;20182;-42
2022/04/01 02:26:31;;;;;;;2.55;0.88;;;;;;;1.10;64.76;100904.81;4974766;28;20235;-42
2022/04/01 02:28:59;;;;;;;1.75;1.00;;;;;;;1.11;64.55;100917.09;4974365;28;20176;-43
2022/04/01 02:31:25;;;;;;;2.25;0.70;;;;;;;1.11;63.85;100901.28;4973377;28;20595;-42
2022/04/01 02:33:53;;;;;;;2.35;0.70;;;;;;;1.13;63.88;100918.00;4973479;28;20213;-42
2022/04/01 02:36:19;;;;;;;1.25;0.82;;;;;;;1.09;64.02;100910.94;4973169;28;20194;-42
2022/04/01 02:38:44;;;;;;;0.80;0.60;;;;;;;1.12;64.24;100912.72;4972920;28;20274;-42
2022/04/01 02:41:14;;;;;;;0.60;0.60;;;;;;;1.17;63.80;100909.19;4974345;28;20166;-42
2022/04/01 02:43:40;;;;;;;1.42;0.55;;;;;;;1.15;63.79;100924.16;4972825;28;20174;-42
2022/04/01 02:46:07;;;;;;;1.67;0.80;;;;;;;1.14;64.46;100924.16;4974271;28;20789;-43
2022/04/01 02:48:42;;;;;;;1.52;0.68;;;;;;;1.16;64.48;100919.75;4972553;28;20237;-44
2022/04/01 02:51:28;;;;;;;1.75;0.80;;;;;;;1.15;64.37;100926.78;4973494;28;20244;-43
2022/04/01 02:53:59;;;;;;;2.47;0.60;;;;;;;1.13;64.35;100930.31;4957570;28;20225;-42
2022/04/01 02:56:25;;;;;;;2.45;1.00;;;;;;;1.14;64.15;100919.78;4989147;28;20229;-41
2022/04/01 02:58:51;;;;;;;0.63;0.60;;;;;;;1.11;65.21;100926.78;4972045;28;20185;-43
2022/04/01 03:01:20;;;;;;;4.43;1.25;;;;;;;1.10;64.34;100927.69;4972995;28;20210;-43
2022/04/01 03:03:46;;;;;;;2.58;1.08;;;;;;;1.10;64.34;100925.03;4974415;28;20648;-41
2022/04/01 03:06:14;;;;;;;1.63;0.65;;;;;;;1.10;64.46;100938.22;4971461;28;20681;-42
2022/04/01 03:08:41;;;;;;;2.85;0.82;;;;;;;1.13;64.01;100928.53;4972261;28;20185;-41
2022/04/01 03:11:07;;;;;;;2.55;0.70;;;;;;;1.12;63.97;100939.13;4972057;28;20182;-41
2022/04/01 03:13:33;;;;;;;0.70;0.60;;;;;;;1.11;64.30;100924.16;4972642;28;20169;-43
2022/04/01 03:16:27;;;;;;;3.67;0.93;;;;;;;1.11;64.28;100921.50;4973466;28;20228;-42
2022/04/01 03:18:57;;;;;;;3.80;0.80;;;;;;;1.08;64.96;100919.75;4972304;28;20185;-42
2022/04/01 03:21:24;;;;;;;1.30;0.60;;;;;;;1.10;64.84;100936.47;4990018;28;20189;-42
2022/04/01 03:23:51;;;;;;;4.93;0.90;;;;;;;1.10;65.46;100928.56;4991620;28;20182;-43
2022/04/01 03:26:18;;;;;;;1.80;0.63;;;;;;;1.11;64.93;100929.44;4991866;28;20205;-43
2022/04/01 03:29:12;;;;;;;1.20;0.65;;;;;;;1.06;65.03;100936.47;4983158;28;20197;-41
2022/04/01 03:31:40;;;;;;;1.48;0.80;;;;;;;1.05;65.06;100932.94;4991767;28;20268;-41
2022/04/01 03:34:06;;;;;;;4.38;1.08;;;;;;;1.09;65.25;100934.69;4991603;28;20215;-43
2022/04/01 03:36:33;;;;;;;1.60;0.90;;;;;;;1.13;64.73;100941.75;4993092;28;20401;-41
2022/04/01 03:39:00;;;;;;;1.85;0.80;;;;;;;1.08;65.12;100946.13;4992697;28;20252;-45
2022/04/01 03:41:49;;;;;;;1.45;0.70;;;;;;;1.15;64.59;100939.97;4991560;28;20201;-42
2022/04/01 03:44:15;;;;;;;2.28;1.05;;;;;;;1.12;64.69;100939.13;4990908;28;20181;-44
2022/04/01 03:47:01;;;;;;;2.50;0.95;;;;;;;1.10;64.87;100952.31;4991335;28;20289;-42
2022/04/01 03:49:31;;;;;;;2.58;0.93;;;;;;;1.05;65.17;100948.78;4986336;28;20664;-45
2022/04/01 03:51:56;;;;;;;1.65;0.88;;;;;;;1.03;65.26;100948.75;4991185;28;20181;-43
2022/04/01 03:54:25;;;;;;;2.97;0.93;;;;;;;1.02;65.36;100952.25;4991075;28;20177;-42
2022/04/01 03:57:02;;;;;;;3.08;1.27;;;;;;;1.07;65.09;100956.69;4991374;28;20322;-42
2022/04/01 04:00:07;;;;;;;1.98;0.77;;;;;;;1.08;65.39;100959.31;4986296;28;20211;-40
2022/04/01 04:02:41;;;;;;;1.42;0.73;;;;;;;1.01;65.63;100961.06;4992603;28;20853;-43
2022/04/01 04:05:09;;;;;;;0.70;0.65;;;;;;;1.06;65.01;100963.72;4990700;28;20582;-42
2022/04/01 04:07:36;;;;;;;2.08;0.88;;;;;;;1.08;65.14;100955.81;4990012;28;20187;-42
2022/04/01 04:10:07;;;;;;;2.72;0.85;;;;;;;1.05;65.56;100961.97;4991330;28;20185;-43
2022/04/01 04:12:43;;;;;;;3.60;1.23;;;;;;;1.05;65.55;100948.78;4991025;28;20268;-42
2022/04/01 04:15:09;;;;;;;2.97;1.05;;;;;;;1.00;65.87;100964.56;4990845;28;20212;-42
2022/04/01 04:17:42;;;;;;;1.33;1.23;;;;;;;0.99;66.03;100968.09;4989995;28;20173;-42
2022/04/01 04:20:09;;;;;;;1.65;0.77;;;;;;;1.00;65.41;100954.00;4990999;28;20653;-42
2022/04/01 04:23:06;;;;;;;1.85;0.70;;;;;;;1.00;65.13;100974.25;4990751;28;20208;-43
2022/04/01 04:25:37;;;;;;;1.23;0.95;;;;;;;0.99;65.14;100970.72;4990399;28;20407;-43
2022/04/01 04:28:10;;;;;;;1.48;0.93;;;;;;;0.97;65.57;100977.75;4990140;28;20219;-41
2022/04/01 04:30:48;;;;;;;3.28;0.60;;;;;;;1.00;64.56;100985.66;4990803;28;20636;-42
2022/04/01 04:33:30;;;;;;;3.30;0.90;;;;;;;1.01;65.11;100978.66;4990726;28;20173;-43
2022/04/01 04:36:05;;;;;;;0.70;0.70;;;;;;;0.95;64.96;100990.06;4990133;28;20255;-46
2022/04/01 04:38:46;;;;;;;2.85;0.75;;;;;;;0.92;65.10;100976.88;4969138;28;20177;-44
2022/04/01 04:41:11;;;;;;;2.88;0.98;;;;;;;0.97;65.24;100984.81;4990039;28;20209;-46
2022/04/01 04:43:45;;;;;;;2.28;0.65;;;;;;;0.97;65.46;100993.59;4974967;28;20648;-46
2022/04/01 04:46:14;;;;;;;1.25;0.70;;;;;;;0.96;65.49;101009.41;4989682;28;20639;-44
2022/04/01 04:48:41;;;;;;;7.22;1.15;;;;;;;0.98;65.50;101002.38;4988959;28;20178;-45
2022/04/01 04:51:09;;;;;;;2.78;1.00;;;;;;;0.95;65.05;101000.63;4990018;28;20182;-43
2022/04/01 04:53:52;;;;;;;1.90;1.00;;;;;;;0.99;64.69;101002.41;4989089;28;20207;-44
2022/04/01 04:56:18;;;;;;;0.82;0.65;;;;;;;1.00;64.70;101008.53;4989351;28;20202;-45
2022/04/01 04:58:44;;;;;;;1.55;0.80;;;;;;;1.03;64.33;101021.75;4988772;28;20185;-44
2022/04/01 05:01:24;;;;;;;4.38;0.90;;;;;;;1.01;64.19;101010.31;4989453;28;20487;-45
2022/04/01 05:04:02;;;;;;;1.38;0.70;;;;;;;1.06;64.00;101008.56;4988398;28;20606;-44
2022/04/01 05:06:30;;;;;;;1.95;0.90;;;;;;;0.97;64.66;101016.47;4989247;28;20605;-43
2022/04/01 05:10:07;;;;;;;1.05;0.80;;;;;;;0.97;63.99;101014.69;4990137;28;20192;-44
2022/04/01 05:13:02;;;;;;;2.55;0.98;;;;;;;0.97;64.63;101019.09;4988934;28;20188;-44
2022/04/01 05:16:07;;;;;;;1.63;0.70;;;;;;;0.96;63.73;101018.22;4979519;28;20276;-43
2022/04/01 05:18:40;;;;;;;0.88;0.70;;;;;;;1.01;63.18;101012.97;4988723;28;20253;-44
2022/04/01 05:21:18;;;;;;;0.82;0.82;;;;;;;1.00;63.48;101033.16;4989036;28;20205;-44
2022/04/01 05:23:59;;;;;;;2.55;0.90;;;;;;;1.05;62.68;101043.75;4988878;28;20204;-44
2022/04/01 05:26:38;;;;;;;3.00;1.02;;;;;;;1.11;62.43;101038.47;4988710;28;20698;-47
2022/04/01 05:29:27;;;;;;;1.33;0.77;;;;;;;1.03;62.94;101035.84;4949293;28;20703;-47
2022/04/01 05:32:00;;;;;;;2.30;0.80;;;;;;;1.12;62.94;101047.31;4989401;28;20401;-45
2022/04/01 05:34:40;;;;;;;1.05;0.75;;;;;;;1.03;63.35;101041.09;4988853;28;20174;-45
2022/04/01 05:37:07;;;;;;;2.13;0.90;;;;;;;1.07;63.71;101049.03;4988887;28;20185;-46
2022/04/01 05:39:40;;;;;;;0.88;0.88;;;;;;;1.11;63.53;101059.59;4988565;28;20636;-45
2022/04/01 05:42:09;;;;;;;1.45;0.82;;;;;;;1.20;61.60;101048.19;4988542;28;20201;-44
2022/04/01 05:44:42;;;;;;;2.03;0.75;;;;;;;1.17;61.86;101058.75;4988664;28;20173;-44
2022/04/01 05:47:08;;;;;;;1.40;0.63;;;;;;;1.18;62.00;101057.84;4986011;28;20284;-45
2022/04/01 05:49:41;;;;;;;3.00;0.77;;;;;;;1.19;62.39;101078.13;4988100;28;20177;-47
2022/04/01 05:52:11;;;;;;;3.10;0.80;;;;;;;1.20;62.05;101070.22;4986530;28;20249;-44
2022/04/01 05:54:40;;;;;;;1.83;0.88;;;;;;;1.24;61.74;101077.25;4990195;28;20220;-45
2022/04/01 05:57:10;;;;;;;0.88;0.77;;;;;;;1.27;61.28;101078.13;4988336;28;20173;-45
2022/04/01 05:59:36;;;;;;;1.75;0.77;;;;;;;1.24;61.21;101069.31;4988705;28;20658;-47
2022/04/01 06:02:12;;;;;;;2.08;0.75;;;;;;;1.27;61.03;101071.13;4971627;28;20205;-45
2022/04/01 06:05:15;;;;;;;0.80;0.60;;;;;;;1.31;61.86;101082.53;4985595;28;20194;-44
2022/04/01 06:08:05;;;;;;;0.98;0.75;;;;;;;1.32;62.17;101094.88;4985196;28;20251;-45
2022/04/01 06:10:42;;;;;;;0.88;0.88;;;;;;;1.39;62.46;101096.66;4968273;28;20198;-45
2022/04/01 06:14:07;;;;;;;1.65;0.50;;;;;;;1.31;61.86;101091.38;4988191;28;20289;-46
2022/04/01 06:16:55;;;;;;;0.90;0.70;;;;;;;1.35;62.12;101094.88;4990498;28;20655;-44
2022/04/01 06:19:47;;;;;;;1.25;0.73;;;;;;;1.39;62.67;101086.97;4989297;28;20165;-43
2022/04/01 06:22:18;;;;;;;3.85;0.75;;;;;;;1.41;62.00;101094.91;4989072;28;20209;-42
2022/04/01 06:25:10;;;;;;;5.07;1.17;;;;;;;1.42;62.11;101084.38;4989138;28;20563;-42
2022/04/01 06:27:41;;;;;;;3.10;0.85;;;;;;;1.50;62.47;101092.28;4988831;28;20235;-44
2022/04/01 06:30:08;;;;;;;2.55;0.95;;;;;;;1.52;62.89;101103.75;4990088;28;20178;-42
2022/04/01 06:32:54;;;;;;;2.50;0.75;;;;;;;1.50;62.79;101102.84;4988858;28;20667;-43
2022/04/01 06:35:44;;;;;;;3.08;0.80;;;;;;;1.53;62.76;101099.34;4996844;28;20286;-43
2022/04/01 06:38:39;;;;;;;5.65;0.85;;;;;;;1.65;63.66;101105.53;4955438;28;20269;-41
2022/04/01 06:41:08;;;;;;;1.90;0.68;;;;;;;1.55;63.40;101114.34;4972289;28;20182;-42
2022/04/01 06:43:46;;;;;;;1.73;1.10;;;;;;;1.60;64.37;101109.94;4988765;28;20923;-45
2022/04/01 06:46:30;;;;;;;1.42;0.80;;;;;;;1.67;63.57;101120.53;4994157;28;20699;-45
2022/04/01 06:49:08;;;;;;;5.07;1.00;;;;;;;1.71;63.48;101117.03;5011686;28;20165;-45
2022/04/01 06:51:43;;;;;;;1.65;1.00;;;;;;;1.82;62.46;101120.56;5007282;28;20252;-44
2022/04/01 06:54:28;;;;;;;1.85;0.75;;;;;;;1.73;61.79;101134.63;4993457;28;20179;-44
2022/04/01 06:57:12;;;;;;;2.47;0.93;;;;;;;1.81;61.87;101135.50;4997534;28;20257;-43
2022/04/01 06:59:57;;;;;;;4.20;0.80;;;;;;;1.89;62.50;101138.19;5001894;28;20193;-47
2022/04/01 07:02:23;;;;;;;1.23;0.98;;;;;;;1.98;62.06;101132.91;4985201;28;20656;-43
2022/04/01 07:04:48;;;;;;;3.10;0.90;;;;;;;1.96;62.27;101139.09;4992862;28;20704;-45
2022/04/01 07:07:14;;;;;;;5.05;0.90;;;;;;;1.80;62.38;101135.53;4991453;28;20260;-47
2022/04/01 07:09:39;;;;;;;1.98;0.98;;;;;;;1.87;62.25;101128.50;4992616;28;20207;-43
2022/04/01 07:12:05;;;;;;;1.27;0.85;;;;;;;1.93;62.53;101133.81;4980832;28;20640;-44
2022/04/01 07:14:33;;;;;;;1.88;1.10;;;;;;;1.99;62.95;101132.06;4977592;28;20200;-45
2022/04/01 07:16:59;;;;;;;3.92;1.15;;;;;;;2.04;62.91;101142.63;4977126;28;20217;-45
2022/04/01 07:19:25;;;;;;;2.92;0.98;;;;;;;2.11;62.82;101135.59;4973258;28;20658;-44
2022/04/01 07:21:50;;;;;;;2.55;0.90;;;;;;;1.93;62.16;101147.00;4991113;28;20308;-45
2022/04/01 07:24:16;;;;;;;1.95;0.70;;;;;;;2.03;61.80;101147.03;4992802;28;20197;-43
2022/04/01 07:26:43;;;;;;;1.15;1.00;;;;;;;1.96;62.23;101150.53;4985027;28;20276;-44
2022/04/01 07:29:08;;;;;;;2.42;1.20;;;;;;;2.06;62.53;101140.88;4972883;28;20185;-44
2022/04/01 07:34:35;;;;;;;2.47;1.10;;;;;;;2.24;61.91;101147.94;4987771;28;20185;-45
2022/04/01 07:37:02;;;;;;;3.53;0.95;;;;;;;2.18;62.28;101151.44;4990378;28;20601;-47
2022/04/01 07:39:27;;;;;;;1.45;1.20;;;;;;;2.16;62.60;101174.34;4985941;28;20189;-44
2022/04/01 07:41:56;;;;;;;3.65;1.13;;;;;;;2.19;62.32;101149.72;4987826;28;20209;-46
2022/04/01 07:44:22;;;;;;;2.67;1.00;;;;;;;2.26;62.90;101167.34;4970173;28;20186;-44
2022/04/01 07:46:49;;;;;;;2.65;1.25;;;;;;;2.19;62.96;101158.50;4984853;28;20746;-45
2022/04/01 07:49:16;;;;;;;2.67;1.08;;;;;;;2.28;62.65;101173.50;4990614;28;20184;-43
2022/04/01 07:51:43;;;;;;;1.52;0.98;;;;;;;2.22;62.76;101161.16;4989952;28;20589;-45
2022/04/01 07:54:10;;;;;;;2.92;1.25;;;;;;;2.41;63.03;101154.13;4990845;28;20174;-42
2022/04/01 07:56:36;;;;;;;3.03;0.75;;;;;;;2.41;62.69;101161.19;4992542;28;20189;-44
2022/04/01 07:59:04;;;;;;;1.23;1.08;;;;;;;2.50;62.39;101161.19;4991841;28;20188;-44
2022/04/01 08:01:30;;;;;;;2.50;1.30;;;;;;;2.25;61.64;101160.25;4992352;28;20244;-46
2022/04/01 08:03:56;;;;;;;2.60;1.20;;;;;;;2.40;61.83;101168.22;4992426;28;20173;-43
2022/04/01 08:06:21;;;;;;;3.83;1.60;;;;;;;2.48;61.72;101170.88;4992016;28;20205;-44
2022/04/01 08:08:46;;;;;;;2.40;1.25;;;;;;;2.75;62.36;101174.41;4991690;28;20199;-43
2022/04/01 08:11:12;;;;;;;2.00;1.33;;;;;;;2.76;62.67;101189.41;4990578;28;20181;-45
2022/04/01 08:13:37;;;;;;;2.85;1.20;;;;;;;2.50;62.09;101187.63;4989885;28;20193;-43
2022/04/01 08:16:03;;;;;;;1.45;1.00;;;;;;;2.57;61.96;101188.50;4989894;28;20566;-42
2022/04/01 08:18:28;;;;;;;2.33;1.00;;;;;;;2.58;61.76;101187.63;4990908;28;20205;-45
2022/04/01 08:20:54;;;;;;;2.88;1.45;;;;;;;2.78;61.98;101190.28;4975316;28;20280;-44
2022/04/01 08:23:19;;;;;;;1.27;1.10;;;;;;;2.58;61.72;101191.16;4955866;28;20216;-45
2022/04/01 08:25:46;;;;;;;2.17;1.20;;;;;;;2.75;62.09;101185.84;5008945;28;20244;-44
2022/04/01 08:28:12;;;;;;;2.55;1.17;;;;;;;2.70;60.92;101184.97;4993424;28;20169;-44
2022/04/01 08:30:38;;;;;;;1.00;1.00;;;;;;;2.84;60.64;101206.13;5011046;28;20255;-45
2022/04/01 08:33:04;;;;;;;1.83;1.05;;;;;;;2.94;60.82;101207.91;5010302;28;20547;-46
2022/04/01 08:35:29;;;;;;;1.30;1.20;;;;;;;3.06;60.39;101192.03;5011309;28;20209;-44
2022/04/01 08:37:57;;;;;;;3.70;1.30;;;;;;;2.87;59.85;101203.50;5010726;28;20192;-43
2022/04/01 08:40:24;;;;;;;2.05;1.30;;;;;;;2.94;60.71;101199.97;5011328;28;20183;-43
2022/04/01 08:42:49;;;;;;;1.15;1.05;;;;;;;2.99;59.59;101200.81;5010929;28;20216;-46
2022/04/01 08:45:19;;;;;;;3.00;1.27;;;;;;;2.93;59.67;101211.44;5010898;28;20184;-43
2022/04/01 08:47:46;;;;;;;2.67;1.40;;;;;;;3.03;59.91;101218.47;5010968;28;20180;-42
2022/04/01 08:50:11;;;;;;;4.68;1.58;;;;;;;3.05;59.69;101211.41;5009493;28;20200;-46
2022/04/01 08:52:38;;;;;;;1.63;1.20;;;;;;;3.19;59.47;101219.34;5011288;28;20219;-43
2022/04/01 08:55:09;;;;;;;1.13;1.02;;;;;;;3.03;58.75;101222.91;4999314;28;20201;-45
2022/04/01 08:57:36;;;;;;;2.40;1.13;;;;;;;2.95;58.68;101227.31;4982783;28;20184;-44
2022/04/01 09:00:23;;;;;;;1.27;1.00;;;;;;;3.21;58.18;101233.44;4989951;28;20265;-42
2022/04/01 09:03:06;;;;;;;3.63;1.23;;;;;;;3.37;58.17;101209.59;4988038;28;20192;-45
2022/04/01 09:05:32;;;;;;;4.05;1.52;;;;;;;3.42;57.44;101221.94;4991050;28;20291;-42
2022/04/01 09:08:03;;;;;;;2.53;1.20;;;;;;;3.41;57.63;101225.50;4992110;28;20260;-43
2022/04/01 09:10:29;;;;;;;1.20;1.02;;;;;;;3.55;57.51;101227.22;4974092;28;20177;-45
2022/04/01 09:12:55;;;;;;;2.33;1.10;;;;;;;3.42;57.37;101218.41;4991623;28;20648;-45
2022/04/01 09:15:21;;;;;;;1.90;1.55;;;;;;;3.21;57.68;101230.78;4991195;28;20209;-46
2022/04/01 09:17:48;;;;;;;1.35;1.20;;;;;;;3.54;57.78;101228.09;4991071;28;20177;-44
2022/04/01 09:20:15;;;;;;;1.00;0.95;;;;;;;3.53;56.44;101224.56;4990735;28;20173;-43
2022/04/01 09:22:42;;;;;;;2.45;1.30;;;;;;;3.48;56.88;101224.59;4991431;28;20237;-45
2022/04/01 09:25:17;;;;;;;3.83;1.33;;;;;;;3.44;57.12;101237.84;4991103;28;20617;-42
2022/04/01 09:27:49;;;;;;;2.30;1.55;;;;;;;3.43;57.30;101229.03;4991283;28;20172;-44
2022/04/01 09:30:22;;;;;;;2.88;1.40;;;;;;;3.83;57.00;101241.25;4990816;28;20711;-44
2022/04/01 09:32:57;;;;;;;1.25;1.10;;;;;;;3.59;56.24;101232.50;4991305;28;20162;-43
2022/04/01 09:35:25;;;;;;;5.53;1.25;;;;;;;3.80;54.80;101234.16;4991163;28;20490;-44
2022/04/01 09:38:01;;;;;;;2.08;1.33;;;;;;;3.34;54.88;101244.91;4991614;28;20173;-43
2022/04/01 09:40:27;;;;;;;1.73;1.02;;;;;;;3.37;55.61;101249.31;4991048;28;20259;-43
2022/04/01 09:42:56;;;;;;;1.75;1.30;;;;;;;3.52;54.90;101249.31;4988317;28;20316;-44
2022/04/01 09:45:26;;;;;;;1.20;1.10;;;;;;;3.18;53.50;101259.06;4988630;28;20228;-45
2022/04/01 09:48:04;;;;;;;2.92;0.95;;;;;;;3.34;53.06;101238.72;4973181;28;20177;-45
2022/04/01 09:50:37;;;;;;;4.45;1.20;;;;;;;3.46;52.53;101246.66;4990489;28;20238;-45
2022/04/01 09:53:11;;;;;;;1.02;0.93;;;;;;;3.56;52.86;101229.84;4990108;28;20604;-43
2022/04/01 09:55:39;;;;;;;1.30;1.13;;;;;;;3.64;53.44;101248.38;4990790;28;20580;-44
2022/04/01 09:58:06;;;;;;;1.27;1.17;;;;;;;3.12;52.54;101243.19;4990790;28;20177;-47
2022/04/01 10:00:33;;;;;;;1.42;1.30;;;;;;;3.65;52.46;101248.38;4990834;28;20189;-44
2022/04/01 10:02:59;;;;;;;1.02;1.00;;;;;;;3.78;52.64;101238.59;4990768;28;20204;-45
2022/04/01 10:05:25;;;;;;;1.02;0.93;;;;;;;3.81;52.68;101240.38;4985997;28;20291;-47
2022/04/01 10:07:53;;;;;;;1.05;1.00;;;;;;;3.60;51.80;101257.22;4990999;28;20622;-43
2022/04/01 10:10:19;;;;;;;1.40;0.88;;;;;;;3.34;51.28;101249.31;4990672;28;20590;-44
2022/04/01 10:12:47;;;;;;;1.08;0.98;;;;;;;3.42;51.95;101255.50;4991268;28;20161;-45
2022/04/01 10:15:13;;;;;;;1.65;1.02;;;;;;;3.77;52.08;101251.88;4990832;28;20232;-44
2022/04/01 10:17:40;;;;;;;1.67;1.40;;;;;;;3.49;51.94;101259.88;4994810;28;20196;-45
2022/04/01 10:20:08;;;;;;;1.00;0.90;;;;;;;3.43;51.73;101244.91;4994150;28;20652;-44
2022/04/01 10:22:35;;;;;;;1.63;0.90;;;;;;;3.80;50.66;101247.44;4994568;28;20390;-45
2022/04/01 10:25:14;;;;;;;1.27;1.15;;;;;;;3.90;49.60;101243.00;4994643;28;20189;-45
2022/04/01 10:27:49;;;;;;;1.98;1.20;;;;;;;3.82;50.45;101244.78;4993338;28;20641;-45
2022/04/01 10:30:16;;;;;;;3.60;1.30;;;;;;;3.88;50.50;101242.97;4994386;28;20196;-44
2022/04/01 10:32:44;;;;;;;1.35;1.08;;;;;;;3.76;51.38;101247.44;4994136;28;20181;-45
2022/04/01 10:35:26;;;;;;;2.13;0.93;;;;;;;3.97;50.88;101233.25;4994083;28;20182;-44
2022/04/01 10:38:18;;;;;;;1.83;1.00;;;;;;;3.92;49.36;101268.59;4994717;28;20191;-44
2022/04/01 10:40:49;;;;;;;1.40;1.17;;;;;;;3.77;50.16;101257.19;4993080;28;20188;-45
2022/04/01 10:43:20;;;;;;;1.08;1.00;;;;;;;3.86;50.21;101250.06;4993868;28;20300;-43
2022/04/01 10:46:10;;;;;;;1.10;1.00;;;;;;;4.34;49.07;101249.84;4975853;28;20244;-43
2022/04/01 10:51:37;;;;;;;1.40;1.15;;;;;;;3.77;49.51;101250.09;4993318;28;20165;-44
2022/04/01 10:54:12;;;;;;;2.70;1.20;;;;;;;3.85;51.68;101260.69;4993591;28;20349;-46
2022/04/01 10:57:05;;;;;;;1.98;1.10;;;;;;;3.71;51.38;101243.03;4993366;28;20280;-43
2022/04/01 10:59:47;;;;;;;2.03;0.95;;;;;;;4.16;50.05;101256.13;4988527;28;20703;-45
2022/04/01 11:02:18;;;;;;;2.15;1.10;;;;;;;4.04;50.27;101254.41;4993232;28;20193;-45
2022/04/01 11:04:46;;;;;;;3.35;1.20;;;;;;;3.95;49.70;101235.88;4991540;28;20652;-42
2022/04/01 11:07:29;;;;;;;1.08;1.00;;;;;;;4.16;50.84;101245.53;4993798;28;20172;-43
2022/04/01 11:09:58;;;;;;;2.95;1.20;;;;;;;4.08;50.81;101253.50;4992853;28;20272;-42
2022/04/01 11:12:27;;;;;;;2.00;1.00;;;;;;;3.75;51.48;101251.88;4993257;28;20178;-43
2022/04/01 11:15:11;;;;;;;2.25;1.30;;;;;;;4.04;50.81;101250.88;4993159;28;20175;-44
2022/04/01 11:17:37;;;;;;;1.73;1.48;;;;;;;4.36;50.59;101249.84;4993140;28;20524;-44
2022/04/01 11:20:29;;;;;;;2.10;1.08;;;;;;;4.21;51.71;101246.38;4991726;28;20180;-45
2022/04/01 11:22:56;;;;;;;1.33;1.13;;;;;;;3.78;52.02;101246.53;4987507;28;21032;-43
2022/04/01 11:25:22;;;;;;;4.47;1.17;;;;;;;3.87;52.25;101240.31;4990256;28;20554;-44
2022/04/01 11:27:51;;;;;;;4.35;1.63;;;;;;;3.99;51.67;101252.66;4991612;28;20262;-44
2022/04/01 11:30:24;;;;;;;3.85;1.20;;;;;;;4.13;50.71;101243.78;4992095;28;20252;-43
2022/04/01 11:32:58;;;;;;;1.45;1.30;;;;;;;4.22;49.53;101239.28;4992867;28;20231;-46
2022/04/01 11:35:26;;;;;;;4.30;1.50;;;;;;;3.69;50.81;101242.16;4990944;28;20196;-44
2022/04/01 11:37:52;;;;;;;2.22;1.40;;;;;;;4.18;51.33;101243.75;4992881;28;20184;-43
2022/04/01 11:40:25;;;;;;;4.03;1.52;;;;;;;4.69;51.60;101243.41;4992344;28;20170;-45
2022/04/01 11:43:02;;;;;;;2.17;1.65;;;;;;;4.37;51.04;101244.50;4992946;28;20192;-45
2022/04/01 11:45:35;;;;;;;2.40;1.42;;;;;;;4.31;52.16;101253.38;4990955;28;20367;-45
2022/04/01 11:48:12;;;;;;;3.95;1.60;;;;;;;4.21;51.53;101261.41;4992721;28;20177;-45
2022/04/01 11:50:43;;;;;;;2.90;1.20;;;;;;;3.78;51.56;101254.50;4992057;28;20241;-43
2022/04/01 11:53:18;;;;;;;1.67;1.58;;;;;;;4.19;52.09;101256.09;4992513;28;20227;-44
2022/04/01 11:55:44;;;;;;;3.25;1.42;;;;;;;3.94;52.68;101242.09;4992436;28;20187;-46
2022/04/01 11:58:09;;;;;;;1.88;1.48;;;;;;;3.95;52.71;101243.84;4992279;28;20182;-43
2022/04/01 12:00:35;;;;;;;4.00;1.50;;;;;;;3.64;52.35;101251.91;4991737;28;20178;-45
2022/04/01 12:03:00;;;;;;;3.40;1.85;;;;;;;3.64;52.55;101251.03;4992328;28;20715;-43